createdAt,value
2018-03-22T00:00:23.648Z,1.87
2018-03-22T00:02:53.869Z,2.03
2018-03-22T00:05:24.016Z,1.67
2018-03-22T00:07:54.719Z,1.73
2018-03-22T00:10:25.820Z,1.93
2018-03-22T00:12:56.622Z,2.03
2018-03-22T00:15:27.438Z,1.90
2018-03-22T00:17:58.269Z,2.20
2018-03-22T00:20:29.821Z,2.23
2018-03-22T00:23:00.777Z,2.70
2018-03-22T00:25:31.970Z,2.40
2018-03-22T00:28:02.433Z,2.40
2018-03-22T00:30:32.940Z,2.40
2018-03-22T00:33:02.847Z,2.40
2018-03-22T00:35:33.515Z,2.10
2018-03-22T00:38:04.545Z,2.40
2018-03-22T00:40:35.449Z,1.93
2018-03-22T00:43:08.313Z,2.40
2018-03-22T00:45:39.720Z,2.10
2018-03-22T00:48:09.592Z,2.70
2018-03-22T00:50:39.442Z,1.53
2018-03-22T00:53:10.611Z,1.80
2018-03-22T00:55:41.299Z,2.40
2018-03-22T00:58:11.746Z,2.50
2018-03-22T01:00:41.693Z,1.67
2018-03-22T01:03:11.987Z,1.73
2018-03-22T01:05:42.459Z,2.10
2018-03-22T01:08:12.632Z,2.50
2018-03-22T01:10:42.741Z,2.07
2018-03-22T01:13:13.696Z,2.00
2018-03-22T01:15:44.163Z,2.00
2018-03-22T01:18:14.748Z,2.17
2018-03-22T01:20:44.830Z,1.63
2018-03-22T01:23:14.480Z,2.10
2018-03-22T01:25:45.105Z,2.00
2018-03-22T01:28:16.900Z,2.03
2018-03-22T01:30:48.904Z,2.20
2018-03-22T01:33:19.367Z,2.10
2018-03-22T01:35:50.113Z,2.10
2018-03-22T01:38:20.659Z,1.90
2018-03-22T01:40:50.429Z,1.57
2018-03-22T01:43:20.341Z,1.77
2018-03-22T01:45:51.424Z,1.60
2018-03-22T01:48:25.283Z,1.73
2018-03-22T01:50:55.204Z,1.50
2018-03-22T01:53:25.156Z,2.00
2018-03-22T01:55:57.343Z,1.40
2018-03-22T01:58:27.919Z,1.70
2018-03-22T02:00:58.389Z,1.77
2018-03-22T02:03:29.393Z,1.57
2018-03-22T02:05:59.299Z,1.60
2018-03-22T02:08:30.033Z,1.63
2018-03-22T02:11:02.941Z,1.53
2018-03-22T02:13:32.509Z,1.63
2018-03-22T02:16:03.156Z,1.40
2018-03-22T02:18:33.687Z,1.33
2018-03-22T02:21:05.566Z,1.30
2018-03-22T02:23:36.808Z,1.77
2018-03-22T02:26:06.705Z,1.10
2018-03-22T02:28:37.130Z,1.57
2018-03-22T02:31:07.574Z,1.30
2018-03-22T02:33:38.522Z,1.33
2018-03-22T02:36:08.308Z,1.20
2018-03-22T02:38:38.119Z,1.40
2018-03-22T02:41:08.998Z,1.67
2018-03-22T02:43:39.175Z,1.10
2018-03-22T02:46:10.125Z,1.77
2018-03-22T02:48:40.545Z,0.87
2018-03-22T02:51:10.893Z,1.17
2018-03-22T02:53:40.577Z,1.10
2018-03-22T02:56:10.837Z,1.00
2018-03-22T02:58:42.009Z,1.10
2018-03-22T03:01:11.588Z,1.00
2018-03-22T03:03:42.803Z,1.27
2018-03-22T03:06:12.501Z,0.87
2018-03-22T03:08:42.209Z,1.10
2018-03-22T03:11:12.952Z,1.00
2018-03-22T03:13:42.857Z,1.00
2018-03-22T03:16:12.879Z,1.67
2018-03-22T03:18:42.481Z,0.90
2018-03-22T03:21:13.052Z,0.93
2018-03-22T03:23:45.077Z,0.93
2018-03-22T03:26:15.712Z,0.83
2018-03-22T03:28:45.954Z,0.93
2018-03-22T03:31:17.075Z,0.90
2018-03-22T03:33:46.989Z,0.87
2018-03-22T03:36:16.796Z,0.80
2018-03-22T03:38:47.479Z,0.70
2018-03-22T03:41:18.475Z,1.07
2018-03-22T03:43:48.116Z,0.80
2018-03-22T03:46:17.787Z,0.80
2018-03-22T03:48:47.496Z,1.00
2018-03-22T03:51:17.209Z,0.80
2018-03-22T03:53:47.940Z,1.00
2018-03-22T03:56:18.672Z,0.93
2018-03-22T03:58:48.320Z,0.87
2018-03-22T04:01:18.091Z,0.70
2018-03-22T04:03:48.842Z,0.73
2018-03-22T04:06:18.603Z,1.10
2018-03-22T04:08:50.659Z,0.80
2018-03-22T04:11:20.871Z,0.73
2018-03-22T04:13:52.099Z,0.70
2018-03-22T04:16:22.596Z,0.90
2018-03-22T04:18:52.432Z,0.97
2018-03-22T04:21:24.562Z,1.27
2018-03-22T04:23:54.223Z,0.80
2018-03-22T04:26:24.003Z,0.83
2018-03-22T04:28:54.420Z,1.10
2018-03-22T04:31:24.098Z,1.30
2018-03-22T04:33:55.734Z,1.10
2018-03-22T04:36:26.362Z,1.13
2018-03-22T04:38:56.069Z,0.77
2018-03-22T04:41:26.806Z,1.07
2018-03-22T04:43:56.738Z,1.70
2018-03-22T04:46:28.024Z,0.83
2018-03-22T04:48:57.785Z,0.93
2018-03-22T04:51:28.378Z,1.00
2018-03-22T04:53:58.728Z,1.47
2018-03-22T04:56:33.309Z,1.50
2018-03-22T04:59:03.976Z,1.03
2018-03-22T05:01:34.386Z,1.13
2018-03-22T05:04:05.566Z,1.40
2018-03-22T05:06:35.880Z,1.30
2018-03-22T05:09:06.974Z,1.10
2018-03-22T05:11:38.569Z,1.90
2018-03-22T05:14:10.457Z,1.57
2018-03-22T05:16:43.070Z,1.67
2018-03-22T05:19:13.495Z,1.87
2018-03-22T05:21:43.865Z,1.43
2018-03-22T05:24:15.064Z,1.17
2018-03-22T05:26:46.355Z,1.43
2018-03-22T05:29:16.420Z,1.53
2018-03-22T05:31:47.416Z,1.57
2018-03-22T05:37:02.807Z,2.17
2018-03-22T05:39:34.361Z,2.00
2018-03-22T05:42:05.153Z,1.83
2018-03-22T05:44:35.074Z,1.50
2018-03-22T05:47:05.084Z,2.40
2018-03-22T05:49:35.040Z,1.20
2018-03-22T05:52:06.552Z,1.87
2018-03-22T05:54:36.481Z,1.30
2018-03-22T05:57:07.196Z,1.60
2018-03-22T05:59:37.745Z,1.60
2018-03-22T06:02:08.051Z,1.90
2018-03-22T06:04:37.868Z,1.77
2018-03-22T06:07:08.904Z,1.83
2018-03-22T06:09:39.524Z,1.03
2018-03-22T06:12:10.163Z,1.50
2018-03-22T06:14:40.740Z,1.80
2018-03-22T06:17:11.499Z,2.27
2018-03-22T06:19:42.058Z,2.13
2018-03-22T06:22:11.925Z,1.80
2018-03-22T06:24:42.004Z,1.83
2018-03-22T06:27:13.748Z,1.73
2018-03-22T06:29:44.393Z,1.53
2018-03-22T06:32:14.426Z,2.57
2018-03-22T06:34:44.329Z,2.20
2018-03-22T06:37:16.378Z,2.13
2018-03-22T06:39:46.022Z,2.20
2018-03-22T06:42:16.511Z,1.70
2018-03-22T06:44:46.284Z,1.57
2018-03-22T06:47:16.237Z,1.63
2018-03-22T06:49:46.152Z,2.73
2018-03-22T06:52:16.428Z,2.20
2018-03-22T06:54:46.697Z,1.97
2018-03-22T06:57:19.102Z,2.00
2018-03-22T06:59:49.190Z,1.70
2018-03-22T07:02:19.464Z,1.90
2018-03-22T07:04:50.245Z,1.87
2018-03-22T07:07:20.573Z,2.30
2018-03-22T07:09:51.916Z,1.90
2018-03-22T07:12:22.158Z,2.40
2018-03-22T07:14:53.178Z,1.80
2018-03-22T07:17:23.196Z,1.63
2018-03-22T07:19:53.121Z,1.90
2018-03-22T07:22:23.645Z,2.23
2018-03-22T07:24:53.707Z,1.63
2018-03-22T07:27:24.850Z,1.90
2018-03-22T07:29:54.813Z,1.80
2018-03-22T07:32:29.853Z,1.80
2018-03-22T07:35:01.404Z,2.03
2018-03-22T07:37:32.138Z,1.80
2018-03-22T07:40:03.079Z,1.80
2018-03-22T07:42:32.988Z,1.90
2018-03-22T07:45:07.623Z,1.73
2018-03-22T07:47:37.531Z,1.77
2018-03-22T07:50:10.822Z,2.27
2018-03-22T07:52:40.956Z,1.47
2018-03-22T07:55:12.887Z,1.97
2018-03-22T07:57:42.714Z,1.10
2018-03-22T08:00:13.448Z,1.80
2018-03-22T08:02:44.184Z,1.67
2018-03-22T08:05:15.963Z,1.90
2018-03-22T08:07:46.759Z,1.30
2018-03-22T08:10:16.587Z,1.33
2018-03-22T08:12:49.756Z,1.60
2018-03-22T08:15:22.951Z,1.73
2018-03-22T08:17:54.740Z,1.67
2018-03-22T08:20:37.127Z,1.30
2018-03-22T08:23:18.543Z,1.30
2018-03-22T08:25:55.112Z,1.80
2018-03-22T08:28:34.123Z,1.80
2018-03-22T08:31:03.828Z,1.40
2018-03-22T08:33:34.160Z,1.27
2018-03-22T08:36:04.895Z,1.27
2018-03-22T08:38:34.936Z,1.63
2018-03-22T08:41:07.552Z,1.20
2018-03-22T08:43:37.618Z,1.20
2018-03-22T08:46:07.408Z,1.73
2018-03-22T08:48:37.234Z,1.57
2018-03-22T08:51:07.080Z,1.53
2018-03-22T08:53:38.579Z,1.70
2018-03-22T08:56:09.627Z,1.73
2018-03-22T08:58:39.952Z,1.70
2018-03-22T09:01:09.659Z,1.83
2018-03-22T09:03:40.629Z,2.03
2018-03-22T09:06:10.306Z,1.93
2018-03-22T09:08:40.227Z,1.97
2018-03-22T09:11:10.956Z,1.40
2018-03-22T09:13:40.666Z,1.10
2018-03-22T09:16:10.580Z,1.30
2018-03-22T09:18:41.935Z,1.40
2018-03-22T09:21:12.750Z,1.43
2018-03-22T09:23:42.781Z,1.40
2018-03-22T09:26:13.359Z,1.57
2018-03-22T09:28:43.224Z,1.37
2018-03-22T09:31:13.956Z,1.87
2018-03-22T09:33:45.247Z,1.30
2018-03-22T09:36:14.913Z,1.40
2018-03-22T09:38:45.445Z,1.10
2018-03-22T09:41:15.574Z,1.20
2018-03-22T09:43:45.482Z,0.97
2018-03-22T09:46:15.286Z,1.87
2018-03-22T09:48:46.727Z,1.87
2018-03-22T09:51:16.641Z,2.63
2018-03-22T09:53:46.635Z,2.50
2018-03-22T09:56:16.482Z,4.70
2018-03-22T09:58:46.599Z,10.00
2018-03-22T10:01:17.128Z,7.30
2018-03-22T10:03:47.950Z,5.77
2018-03-22T10:06:18.600Z,4.50
2018-03-22T10:08:48.509Z,3.63
2018-03-22T10:11:18.320Z,3.70
2018-03-22T10:13:48.235Z,4.30
2018-03-22T10:16:23.253Z,4.50
2018-03-22T10:18:56.420Z,4.00
2018-03-22T10:21:26.452Z,4.50
2018-03-22T10:24:03.311Z,4.23
2018-03-22T10:26:36.871Z,3.50
2018-03-22T10:29:09.487Z,3.23
2018-03-22T10:31:46.719Z,3.50
2018-03-22T10:34:18.480Z,3.80
2018-03-22T10:36:50.239Z,3.03
2018-03-22T10:39:22.299Z,2.90
2018-03-22T10:41:58.812Z,2.93
2018-03-22T10:44:33.418Z,1.90
2018-03-22T10:47:06.759Z,2.20
2018-03-22T10:49:40.249Z,1.73
2018-03-22T10:52:16.345Z,1.70
2018-03-22T10:54:51.570Z,1.83
2018-03-22T10:57:24.368Z,1.53
2018-03-22T10:59:58.558Z,2.67
2018-03-22T11:02:36.071Z,2.20
2018-03-22T11:05:09.068Z,1.83
2018-03-22T11:07:41.020Z,1.97
2018-03-22T11:10:12.880Z,1.67
2018-03-22T11:12:44.313Z,2.00
2018-03-22T11:15:18.875Z,1.80
2018-03-22T11:18:05.220Z,1.10
2018-03-22T11:23:25.510Z,1.33
2018-03-22T11:26:08.165Z,1.80
2018-03-22T11:28:54.774Z,1.70
2018-03-22T11:31:27.564Z,1.77
2018-03-22T11:34:00.348Z,1.87
2018-03-22T11:36:34.534Z,1.20
2018-03-22T11:39:08.709Z,1.50
2018-03-22T11:41:42.172Z,1.27
2018-03-22T11:44:17.028Z,1.20
2018-03-22T11:46:51.585Z,0.90
2018-03-22T11:49:22.578Z,1.20
2018-03-22T11:51:57.877Z,1.23
2018-03-22T11:54:35.811Z,1.10
2018-03-22T12:00:13.211Z,1.37
2018-03-22T12:03:01.981Z,1.10
2018-03-22T12:06:59.010Z,0.90
2018-03-22T12:09:34.127Z,1.07
2018-03-22T12:12:07.470Z,1.00
2018-03-22T12:14:48.070Z,0.90
2018-03-22T12:17:23.058Z,1.23
2018-03-22T12:19:53.179Z,0.83
2018-03-22T12:22:32.104Z,1.10
2018-03-22T12:25:06.310Z,1.07
2018-03-22T12:27:36.542Z,1.20
2018-03-22T12:30:17.720Z,1.13
2018-03-22T12:32:51.437Z,1.07
2018-03-22T12:35:23.431Z,0.90
2018-03-22T12:37:57.679Z,0.80
2018-03-22T12:40:34.168Z,0.90
2018-03-22T12:43:09.356Z,0.60
2018-03-22T12:45:42.375Z,0.83
2018-03-22T12:48:26.649Z,0.80
2018-03-22T12:51:00.721Z,0.80
2018-03-22T12:53:32.789Z,1.03
2018-03-22T12:56:09.051Z,0.90
2018-03-22T12:58:39.741Z,0.80
2018-03-22T13:01:18.450Z,0.90
2018-03-22T13:03:54.049Z,0.87
2018-03-22T13:06:33.832Z,1.10
2018-03-22T13:09:13.523Z,1.07
2018-03-22T13:11:49.864Z,0.97
2018-03-22T13:14:25.780Z,0.90
2018-03-22T13:17:08.002Z,1.60
2018-03-22T13:19:43.646Z,0.90
2018-03-22T13:22:18.937Z,1.00
2018-03-22T13:24:56.279Z,1.10
2018-03-22T13:27:34.685Z,0.90
2018-03-22T13:30:10.185Z,0.73
2018-03-22T13:32:42.661Z,0.80
2018-03-22T13:35:17.342Z,0.90
2018-03-22T13:37:53.504Z,1.00
2018-03-22T13:40:29.881Z,0.70
2018-03-22T13:43:11.040Z,1.00
2018-03-22T13:45:50.805Z,1.50
2018-03-22T13:48:25.281Z,0.70
2018-03-22T13:50:58.395Z,1.00
2018-03-22T13:53:34.768Z,0.80
2018-03-22T13:56:07.323Z,0.70
2018-03-22T13:58:45.355Z,1.10
2018-03-22T14:01:21.397Z,0.77
2018-03-22T14:03:51.986Z,0.70
2018-03-22T14:06:23.009Z,1.00
2018-03-22T14:08:52.883Z,1.00
2018-03-22T14:11:22.697Z,0.60
2018-03-22T14:13:52.545Z,0.80
2018-03-22T14:16:22.216Z,0.50
2018-03-22T14:18:52.133Z,0.80
2018-03-22T14:21:21.946Z,0.67
2018-03-22T14:23:52.680Z,1.13
2018-03-22T14:26:23.620Z,0.50
2018-03-22T14:28:54.351Z,0.70
2018-03-22T14:31:24.264Z,0.80
2018-03-22T14:33:54.078Z,0.70
2018-03-22T14:36:23.791Z,0.60
2018-03-22T14:38:53.801Z,0.67
2018-03-22T14:41:23.410Z,1.00
2018-03-22T14:43:54.455Z,0.60
2018-03-22T14:46:25.085Z,0.60
2018-03-22T14:48:54.796Z,0.60
2018-03-22T14:51:24.569Z,0.80
2018-03-22T14:53:55.036Z,0.70
2018-03-22T14:56:24.736Z,0.60
2018-03-22T14:58:56.088Z,0.63
2018-03-22T15:01:25.799Z,0.60
2018-03-22T15:03:56.323Z,0.50
2018-03-22T15:06:28.020Z,0.60
2018-03-22T15:08:57.736Z,0.60
2018-03-22T15:11:27.772Z,0.60
2018-03-22T15:13:57.626Z,0.63
2018-03-22T15:16:28.966Z,0.60
2018-03-22T15:18:58.781Z,0.67
2018-03-22T15:21:28.804Z,0.60
2018-03-22T15:23:59.741Z,0.53
2018-03-22T15:26:29.751Z,0.57
2018-03-22T15:28:59.563Z,0.60
2018-03-22T15:31:29.684Z,0.40
2018-03-22T15:34:00.117Z,0.50
2018-03-22T15:36:29.961Z,0.53
2018-03-22T15:39:01.213Z,0.53
2018-03-22T15:41:30.979Z,0.73
2018-03-22T15:44:00.996Z,0.50
2018-03-22T15:46:32.624Z,0.60
2018-03-22T15:49:02.593Z,0.60
2018-03-22T15:51:33.449Z,0.50
2018-03-22T15:54:04.441Z,0.50
2018-03-22T15:56:34.255Z,0.70
2018-03-22T15:59:06.422Z,0.60
2018-03-22T16:01:36.643Z,0.70
2018-03-22T16:04:06.661Z,0.63
2018-03-22T16:06:37.313Z,0.60
2018-03-22T16:09:08.111Z,0.60
2018-03-22T16:11:38.758Z,0.50
2018-03-22T16:14:09.429Z,0.60
2018-03-22T16:16:39.104Z,0.63
2018-03-22T16:19:08.811Z,0.60
2018-03-22T16:21:38.671Z,0.50
2018-03-22T16:24:08.842Z,0.50
2018-03-22T16:26:38.560Z,0.60
2018-03-22T16:29:10.531Z,0.80
2018-03-22T16:31:42.581Z,0.60
2018-03-22T16:34:12.445Z,0.50
2018-03-22T16:36:42.223Z,0.60
2018-03-22T16:39:12.737Z,0.60
2018-03-22T16:41:42.753Z,0.60
2018-03-22T16:44:14.917Z,0.60
2018-03-22T16:46:44.968Z,0.60
2018-03-22T16:49:14.949Z,0.50
2018-03-22T16:51:46.707Z,0.50
2018-03-22T16:54:17.236Z,0.60
2018-03-22T16:56:48.332Z,0.60
2018-03-22T16:59:19.315Z,0.60
2018-03-22T17:01:49.845Z,0.50
2018-03-22T17:04:22.422Z,0.50
2018-03-22T17:06:53.821Z,0.40
2018-03-22T17:09:24.196Z,0.50
2018-03-22T17:11:54.635Z,0.60
2018-03-22T17:14:25.411Z,0.60
2018-03-22T17:16:55.290Z,0.50
2018-03-22T17:19:25.287Z,0.50
2018-03-22T17:21:55.154Z,0.50
2018-03-22T17:24:26.708Z,0.60
2018-03-22T17:27:00.971Z,0.60
2018-03-22T17:29:32.805Z,0.60
2018-03-22T17:32:02.645Z,0.50
2018-03-22T17:34:32.560Z,0.50
2018-03-22T17:37:03.088Z,0.50
2018-03-22T17:39:32.802Z,0.67
2018-03-22T17:42:02.881Z,0.57
2018-03-22T17:44:33.665Z,0.63
2018-03-22T17:47:03.928Z,0.90
2018-03-22T17:49:33.840Z,1.17
2018-03-22T17:52:04.416Z,1.47
2018-03-22T17:54:36.592Z,1.90
2018-03-22T17:57:06.604Z,2.27
2018-03-22T17:59:36.800Z,2.40
2018-03-22T18:02:06.941Z,2.20
2018-03-22T18:04:37.035Z,2.20
2018-03-22T18:07:07.082Z,1.47
2018-03-22T18:09:37.194Z,1.90
2018-03-22T18:12:07.451Z,1.93
2018-03-22T18:14:38.054Z,1.90
2018-03-22T18:17:07.962Z,1.97
2018-03-22T18:19:38.042Z,1.67
2018-03-22T18:22:07.875Z,1.30
2018-03-22T18:24:38.196Z,1.57
2018-03-22T18:27:08.746Z,2.07
2018-03-22T18:29:40.213Z,1.80
2018-03-22T18:32:10.221Z,1.70
2018-03-22T18:34:41.059Z,1.90
2018-03-22T18:37:13.164Z,1.40
2018-03-22T18:39:43.440Z,1.30
2018-03-22T18:42:14.493Z,1.70
2018-03-22T18:44:44.468Z,1.07
2018-03-22T18:47:16.469Z,1.30
2018-03-22T18:49:47.600Z,1.47
2018-03-22T18:52:17.466Z,1.60
2018-03-22T18:54:48.129Z,1.70
2018-03-22T18:57:19.192Z,1.10
2018-03-22T18:59:49.920Z,1.53
2018-03-22T19:02:19.888Z,1.43
2018-03-22T19:04:49.738Z,0.90
2018-03-22T19:07:20.806Z,1.03
2018-03-22T19:09:50.705Z,1.40
2018-03-22T19:12:22.063Z,1.00
2018-03-22T19:14:51.970Z,1.27
2018-03-22T19:17:21.985Z,1.00
2018-03-22T19:19:52.112Z,0.90
2018-03-22T19:22:21.812Z,1.53
2018-03-22T19:24:51.725Z,1.17
2018-03-22T19:27:22.464Z,1.43
2018-03-22T19:29:52.684Z,1.33
2018-03-22T19:32:22.701Z,1.30
2018-03-22T19:34:52.590Z,1.00
2018-03-22T19:37:22.808Z,1.20
2018-03-22T19:39:54.291Z,1.03
2018-03-22T19:42:24.917Z,1.00
2018-03-22T19:44:55.666Z,1.20
2018-03-22T19:47:26.282Z,1.43
2018-03-22T19:49:56.912Z,0.90
2018-03-22T19:52:27.670Z,1.23
2018-03-22T19:54:59.098Z,0.97
2018-03-22T19:57:29.399Z,1.20
2018-03-22T20:00:00.568Z,0.90
2018-03-22T20:02:30.328Z,0.90
2018-03-22T20:05:04.346Z,1.20
2018-03-22T20:07:34.201Z,0.80
2018-03-22T20:10:04.183Z,1.00
2018-03-22T20:12:35.229Z,0.77
2018-03-22T20:15:05.185Z,1.23
2018-03-22T20:17:35.114Z,1.23
2018-03-22T20:20:06.433Z,0.80
2018-03-22T20:22:36.351Z,1.03
2018-03-22T20:25:08.491Z,0.73
2018-03-22T20:27:39.670Z,1.00
2018-03-22T20:30:09.574Z,0.90
2018-03-22T20:32:41.919Z,1.00
2018-03-22T20:35:12.019Z,1.23
2018-03-22T20:37:42.814Z,1.00
2018-03-22T20:40:12.823Z,1.07
2018-03-22T20:42:44.008Z,1.10
2018-03-22T20:45:14.216Z,1.00
2018-03-22T20:47:45.091Z,1.10
2018-03-22T20:50:15.134Z,1.20
2018-03-22T20:52:46.556Z,1.23
2018-03-22T20:55:16.667Z,1.40
2018-03-22T20:57:47.333Z,1.07
2018-03-22T21:00:17.818Z,1.10
2018-03-22T21:02:47.821Z,1.40
2018-03-22T21:05:17.895Z,1.23
2018-03-22T21:07:48.011Z,1.33
2018-03-22T21:10:20.192Z,2.13
2018-03-22T21:12:53.083Z,1.63
2018-03-22T21:15:24.107Z,1.83
2018-03-22T21:17:55.090Z,1.80
2018-03-22T21:20:25.578Z,1.60
2018-03-22T21:22:57.159Z,1.50
2018-03-22T21:25:27.246Z,2.30
2018-03-22T21:27:57.470Z,2.03
2018-03-22T21:30:28.916Z,1.90
2018-03-22T21:32:59.246Z,2.20
2018-03-22T21:35:29.565Z,1.30
2018-03-22T21:37:59.633Z,1.63
2018-03-22T21:40:30.215Z,1.57
2018-03-22T21:43:00.286Z,1.93
2018-03-22T21:45:30.043Z,1.50
2018-03-22T21:47:59.958Z,1.50
2018-03-22T21:50:38.677Z,1.77
2018-03-22T21:53:09.415Z,1.40
2018-03-22T21:55:39.531Z,1.70
2018-03-22T21:58:09.523Z,1.43
2018-03-22T22:00:39.634Z,1.53
2018-03-22T22:03:10.509Z,1.53
2018-03-22T22:05:41.043Z,1.83
2018-03-22T22:08:10.742Z,1.80
2018-03-22T22:10:42.292Z,1.63
2018-03-22T22:13:12.220Z,1.53
2018-03-22T22:15:43.350Z,1.30
2018-03-22T22:18:13.980Z,1.93
2018-03-22T22:20:45.341Z,2.80
2018-03-22T22:23:15.857Z,2.00
2018-03-22T22:25:45.674Z,2.53
2018-03-22T22:28:16.198Z,2.50
2018-03-22T22:30:47.767Z,3.20
2018-03-22T22:33:17.460Z,2.37
2018-03-22T22:35:47.172Z,2.70
2018-03-22T22:38:16.937Z,2.90
2018-03-22T22:40:46.770Z,2.43
2018-03-22T22:43:16.712Z,2.63
2018-03-22T22:45:48.569Z,2.60
2018-03-22T22:48:19.301Z,2.40
2018-03-22T22:50:49.831Z,2.40
2018-03-22T22:53:19.955Z,1.80
2018-03-22T22:55:50.046Z,1.67
2018-03-22T22:58:19.984Z,2.53
2018-03-22T23:00:49.904Z,1.80
2018-03-22T23:03:19.813Z,2.03
2018-03-22T23:05:49.522Z,1.97
2018-03-22T23:08:20.278Z,2.20
2018-03-22T23:10:51.297Z,1.20
2018-03-22T23:13:21.829Z,1.40
2018-03-22T23:15:54.015Z,1.27
2018-03-22T23:18:23.907Z,1.23
2018-03-22T23:20:56.082Z,1.40
2018-03-22T23:23:27.016Z,1.47
2018-03-22T23:26:00.353Z,1.40
2018-03-22T23:28:32.816Z,1.40
2018-03-22T23:31:02.900Z,2.00
2018-03-22T23:33:32.614Z,1.60
2018-03-22T23:36:02.796Z,1.13
2018-03-22T23:38:32.442Z,0.93
2018-03-22T23:41:03.590Z,1.43
2018-03-22T23:43:35.546Z,1.70
2018-03-22T23:46:07.116Z,1.17
2018-03-22T23:48:41.320Z,0.80
2018-03-22T23:51:11.848Z,1.10
2018-03-22T23:53:42.529Z,1.00
2018-03-22T23:56:12.387Z,1.43
2018-03-22T23:58:43.529Z,0.80
